Time;durP1;ratioP1;P1;durP2;ratioP2;P2;SDS_P1;SDS_P2;PMS_P1;PMS_P2;Temp;Humidity;BMP_temperature;BMP_pressure;BME280_temperature;BME280_humidity;BME280_pressure;Samples;Min_cycle;Max_cycle;Signal;HPM_P1;HPM_P2
2021/10/05 00:01:51;;;;;;;6.93;4.63;;;13.70;99.90;;;;;;5007776;28;20034;-72
2021/10/05 00:04:17;;;;;;;7.38;4.57;;;13.70;99.90;;;;;;4992302;28;20046;-72
2021/10/05 00:06:42;;;;;;;5.88;4.50;;;13.60;99.90;;;;;;4991959;28;20461;-73
2021/10/05 00:09:08;;;;;;;5.38;4.60;;;13.60;99.90;;;;;;5007853;28;20336;-73
2021/10/05 00:11:34;;;;;;;5.70;4.60;;;13.60;99.90;;;;;;5006847;28;20037;-73
2021/10/05 00:14:00;;;;;;;9.05;4.97;;;13.70;99.90;;;;;;4992475;28;20034;-73
2021/10/05 00:16:26;;;;;;;12.85;5.40;;;13.60;99.90;;;;;;4992484;28;20449;-73
2021/10/05 00:18:52;;;;;;;5.45;4.53;;;13.60;99.90;;;;;;4992422;28;20030;-73
2021/10/05 00:21:18;;;;;;;6.90;5.28;;;13.50;99.90;;;;;;5007406;28;20026;-73
2021/10/05 00:23:44;;;;;;;5.75;4.20;;;13.50;99.90;;;;;;5006752;28;20400;-73
2021/10/05 00:26:10;;;;;;;7.03;4.35;;;13.50;99.90;;;;;;4992636;28;20026;-72
2021/10/05 00:28:35;;;;;;;7.22;4.50;;;13.50;99.90;;;;;;5006709;28;20034;-72
2021/10/05 00:31:01;;;;;;;4.60;4.10;;;13.60;99.90;;;;;;5007300;28;20397;-72
2021/10/05 00:33:27;;;;;;;5.20;4.68;;;13.60;99.90;;;;;;4992262;28;20034;-72
2021/10/05 00:35:53;;;;;;;7.35;4.55;;;13.70;99.90;;;;;;5007504;28;20427;-73
2021/10/05 00:38:19;;;;;;;5.93;4.43;;;13.70;99.90;;;;;;4991901;28;20483;-72
2021/10/05 00:40:45;;;;;;;7.53;4.38;;;13.70;99.90;;;;;;5006620;28;20088;-72
2021/10/05 00:43:10;;;;;;;5.97;4.35;;;13.70;99.90;;;;;;4992319;28;20033;-73
2021/10/05 00:45:37;;;;;;;6.13;4.00;;;13.70;99.90;;;;;;4991259;28;20033;-72
2021/10/05 00:48:03;;;;;;;5.53;4.30;;;13.60;99.90;;;;;;5007391;28;20023;-73
2021/10/05 00:50:29;;;;;;;5.20;4.38;;;13.60;99.90;;;;;;5006564;28;20365;-73
2021/10/05 00:52:56;;;;;;;4.75;4.20;;;13.60;99.90;;;;;;5007233;28;20030;-71
2021/10/05 00:55:21;;;;;;;6.65;4.68;;;13.60;99.90;;;;;;5006259;28;20037;-72
2021/10/05 00:57:47;;;;;;;7.40;4.88;;;13.50;99.90;;;;;;5006548;28;20030;-73
2021/10/05 01:00:13;;;;;;;5.53;4.57;;;13.50;99.90;;;;;;4991829;28;20149;-73
2021/10/05 01:02:39;;;;;;;6.40;4.95;;;13.50;99.90;;;;;;4990933;28;20026;-72
2021/10/05 01:05:07;;;;;;;5.57;4.93;;;13.50;99.90;;;;;;5006986;28;20474;-73
2021/10/05 01:07:32;;;;;;;6.88;4.85;;;13.50;99.90;;;;;;4991270;28;20117;-74
2021/10/05 01:09:58;;;;;;;5.20;4.40;;;13.50;99.90;;;;;;5006926;28;20121;-72
2021/10/05 01:12:24;;;;;;;6.32;5.70;;;13.50;99.90;;;;;;4991682;28;20034;-72
2021/10/05 01:14:49;;;;;;;6.72;4.95;;;13.50;99.90;;;;;;4990916;28;20405;-72
2021/10/05 01:17:15;;;;;;;6.22;4.93;;;13.60;99.90;;;;;;5006691;28;20451;-72
2021/10/05 01:19:41;;;;;;;5.10;4.47;;;13.60;99.90;;;;;;4990829;28;20380;-72
2021/10/05 01:22:07;;;;;;;6.28;5.13;;;13.60;99.90;;;;;;4991691;28;20031;-70
2021/10/05 01:24:34;;;;;;;5.05;4.63;;;13.60;99.90;;;;;;4991124;28;20101;-73
2021/10/05 01:27:00;;;;;;;7.75;5.70;;;13.50;99.90;;;;;;4991821;28;20022;-71
2021/10/05 01:29:28;;;;;;;6.60;5.13;;;13.40;99.90;;;;;;5006566;28;20035;-72
2021/10/05 01:31:56;;;;;;;7.03;5.00;;;13.30;99.90;;;;;;4990622;28;20404;-73
2021/10/05 01:34:22;;;;;;;10.57;4.78;;;13.40;99.90;;;;;;4991862;28;20376;-73
2021/10/05 01:36:50;;;;;;;6.00;5.40;;;13.50;99.90;;;;;;5005602;28;20031;-73
2021/10/05 01:39:36;;;;;;;8.55;5.60;;;13.40;99.90;;;;;;5006547;28;20387;-73
2021/10/05 01:42:08;;;;;;;6.20;4.68;;;13.30;99.90;;;;;;4991522;28;20628;-73
2021/10/05 01:44:35;;;;;;;5.75;5.15;;;13.40;99.90;;;;;;4990722;28;20066;-73
2021/10/05 01:47:03;;;;;;;6.20;4.95;;;13.50;99.90;;;;;;4991327;28;20023;-73
2021/10/05 01:49:28;;;;;;;6.03;4.88;;;13.50;99.90;;;;;;4991282;28;20138;-73
2021/10/05 01:51:54;;;;;;;6.05;4.80;;;13.50;99.90;;;;;;5005951;28;20463;-73
2021/10/05 01:54:20;;;;;;;5.13;4.63;;;13.50;99.90;;;;;;4991291;28;20026;-73
2021/10/05 01:56:46;;;;;;;5.60;4.70;;;13.50;99.90;;;;;;4990441;28;20038;-72
2021/10/05 01:59:12;;;;;;;7.60;4.97;;;13.50;99.90;;;;;;5006307;28;20038;-73
2021/10/05 02:01:39;;;;;;;5.15;4.75;;;13.40;99.90;;;;;;4990588;28;20050;-74
2021/10/05 02:04:06;;;;;;;5.45;4.95;;;13.50;99.90;;;;;;4991300;28;20058;-72
2021/10/05 02:06:31;;;;;;;5.38;4.65;;;13.50;99.90;;;;;;5007180;28;20033;-72
2021/10/05 02:08:57;;;;;;;6.30;4.50;;;13.50;99.90;;;;;;4994018;28;20105;-70
2021/10/05 02:11:23;;;;;;;6.30;5.15;;;13.50;99.90;;;;;;4994387;28;20026;-71
2021/10/05 02:13:48;;;;;;;5.38;4.50;;;13.50;99.90;;;;;;4994044;28;20484;-70
2021/10/05 02:16:14;;;;;;;6.03;5.22;;;13.50;99.90;;;;;;5009590;28;20041;-71
2021/10/05 02:18:46;;;;;;;8.18;4.88;;;13.50;99.90;;;;;;4993788;28;20038;-71
2021/10/05 02:21:20;;;;;;;5.85;5.20;;;13.50;99.90;;;;;;5009961;28;20054;-72
2021/10/05 02:26:32;;;;;;;6.03;5.03;;;13.50;99.90;;;;;;4994221;28;20073;-71
2021/10/05 02:28:58;;;;;;;5.68;5.15;;;13.50;99.90;;;;;;4993838;28;20034;-71
2021/10/05 02:31:24;;;;;;;5.30;4.80;;;13.40;99.90;;;;;;5009307;28;20451;-71
2021/10/05 02:33:49;;;;;;;6.38;5.35;;;13.40;99.90;;;;;;5008733;28;20023;-71
2021/10/05 02:36:15;;;;;;;5.35;4.85;;;13.50;99.90;;;;;;4992971;28;20025;-71
2021/10/05 02:38:41;;;;;;;6.85;5.63;;;13.50;99.90;;;;;;4993507;28;20387;-71
2021/10/05 02:41:07;;;;;;;5.05;4.60;;;13.50;99.90;;;;;;5009096;28;20022;-71
2021/10/05 02:43:32;;;;;;;5.35;4.85;;;13.50;99.90;;;;;;4993905;28;20034;-71
2021/10/05 02:45:58;;;;;;;6.57;5.38;;;13.50;99.90;;;;;;5008450;28;20125;-71
2021/10/05 02:48:24;;;;;;;6.15;5.18;;;13.50;99.90;;;;;;4994493;28;20037;-71
2021/10/05 02:50:50;;;;;;;12.18;5.22;;;13.50;99.90;;;;;;4993232;28;20022;-71
2021/10/05 02:53:16;;;;;;;5.32;4.82;;;13.50;99.90;;;;;;5008595;28;20475;-71
2021/10/05 02:55:41;;;;;;;6.57;5.45;;;13.50;99.90;;;;;;5008319;28;20030;-70
2021/10/05 02:58:08;;;;;;;5.63;5.00;;;13.50;99.90;;;;;;5008925;28;20045;-71
2021/10/05 03:00:34;;;;;;;4.70;4.30;;;13.60;99.90;;;;;;5008813;28;20526;-71
2021/10/05 03:03:00;;;;;;;8.07;5.63;;;13.60;99.90;;;;;;4992592;28;20166;-71
2021/10/05 03:05:25;;;;;;;5.53;5.03;;;13.50;99.90;;;;;;4993427;28;20022;-72
2021/10/05 03:07:51;;;;;;;5.30;4.82;;;13.50;99.90;;;;;;4991759;28;20038;-71
2021/10/05 03:10:17;;;;;;;6.28;5.68;;;13.40;99.90;;;;;;5008729;28;20081;-71
2021/10/05 03:12:43;;;;;;;6.60;6.00;;;13.40;99.90;;;;;;4993346;28;20499;-71
2021/10/05 03:15:09;;;;;;;8.45;5.45;;;13.30;99.90;;;;;;4997493;28;20025;-73
2021/10/05 03:17:34;;;;;;;5.35;4.85;;;13.30;99.90;;;;;;5012497;28;20375;-72
2021/10/05 03:20:00;;;;;;;6.10;5.50;;;13.40;99.90;;;;;;5012238;28;20029;-71
2021/10/05 03:22:26;;;;;;;5.25;4.75;;;13.40;99.90;;;;;;5012196;28;20041;-71
2021/10/05 03:24:51;;;;;;;6.18;5.25;;;13.50;99.90;;;;;;5012207;28;20033;-72
2021/10/05 03:27:17;;;;;;;9.60;6.10;;;13.50;99.90;;;;;;5011459;28;20061;-70
2021/10/05 03:29:43;;;;;;;5.20;4.70;;;13.50;99.90;;;;;;5012610;28;20117;-70
2021/10/05 03:32:09;;;;;;;6.07;4.90;;;13.50;99.90;;;;;;5011410;28;20069;-70
2021/10/05 03:34:34;;;;;;;5.18;4.70;;;13.50;99.90;;;;;;5011420;28;20058;-70
2021/10/05 03:37:00;;;;;;;5.53;5.00;;;13.50;99.90;;;;;;5010777;28;20332;-71
2021/10/05 03:39:26;;;;;;;5.47;4.97;;;13.40;99.90;;;;;;5011426;28;20125;-71
2021/10/05 03:41:52;;;;;;;6.95;5.15;;;13.40;99.90;;;;;;5010734;28;20030;-71
2021/10/05 03:44:18;;;;;;;6.75;5.47;;;13.40;99.90;;;;;;5012802;28;20072;-71
2021/10/05 03:46:43;;;;;;;5.88;5.35;;;13.40;99.90;;;;;;5010721;28;20029;-71
2021/10/05 03:49:09;;;;;;;6.25;5.65;;;13.40;99.90;;;;;;5012437;28;20191;-71
2021/10/05 03:51:35;;;;;;;5.53;5.03;;;13.20;99.90;;;;;;5012171;28;20112;-71
2021/10/05 03:54:01;;;;;;;6.38;5.78;;;13.20;99.90;;;;;;5011597;28;20048;-71
2021/10/05 03:56:26;;;;;;;7.95;5.25;;;13.10;99.90;;;;;;5011068;28;20025;-71
2021/10/05 03:58:52;;;;;;;7.18;5.40;;;13.10;99.90;;;;;;5010379;28;20079;-71
2021/10/05 04:01:18;;;;;;;6.18;5.47;;;13.10;99.90;;;;;;5011216;28;20033;-70
2021/10/05 04:03:43;;;;;;;6.57;5.20;;;13.10;99.90;;;;;;5011074;28;20054;-71
2021/10/05 04:06:09;;;;;;;5.22;4.82;;;13.20;99.90;;;;;;5011747;28;20030;-71
2021/10/05 04:08:35;;;;;;;9.43;6.15;;;13.10;99.90;;;;;;5011850;28;20424;-71
2021/10/05 04:11:02;;;;;;;8.88;5.97;;;13.10;99.90;;;;;;5010156;28;20021;-71
2021/10/05 04:13:27;;;;;;;6.97;6.28;;;13.10;99.90;;;;;;5010634;28;20471;-71
2021/10/05 04:15:53;;;;;;;6.90;6.13;;;13.10;99.90;;;;;;5011368;28;20037;-71
2021/10/05 04:18:19;;;;;;;6.13;5.50;;;13.20;99.90;;;;;;5012135;28;20034;-71
2021/10/05 04:20:45;;;;;;;6.40;5.80;;;13.30;99.90;;;;;;5009990;28;20037;-71
2021/10/05 04:23:10;;;;;;;6.18;5.32;;;13.20;99.90;;;;;;5010178;28;20026;-71
2021/10/05 04:25:36;;;;;;;7.78;6.30;;;13.30;99.90;;;;;;5010162;28;20030;-71
2021/10/05 04:28:02;;;;;;;6.40;5.80;;;13.20;99.90;;;;;;5009587;28;20029;-71
2021/10/05 04:30:28;;;;;;;6.85;6.15;;;13.30;99.90;;;;;;5009845;28;20026;-71
2021/10/05 04:32:53;;;;;;;7.57;6.75;;;13.20;99.90;;;;;;5011243;28;20041;-71
2021/10/05 04:35:19;;;;;;;7.88;6.00;;;13.20;99.90;;;;;;5010344;28;20034;-71
2021/10/05 04:37:45;;;;;;;6.82;5.53;;;13.20;99.90;;;;;;5009648;28;20022;-71
2021/10/05 04:40:11;;;;;;;7.05;6.22;;;13.20;99.90;;;;;;5011355;28;20075;-70
2021/10/05 04:42:37;;;;;;;6.45;5.82;;;13.10;99.90;;;;;;5011341;28;20056;-71
2021/10/05 04:45:03;;;;;;;7.22;6.05;;;13.20;99.90;;;;;;5009418;28;20486;-70
2021/10/05 04:47:29;;;;;;;7.72;6.45;;;13.20;99.90;;;;;;5010078;28;20475;-71
2021/10/05 04:49:55;;;;;;;6.47;5.88;;;13.20;99.90;;;;;;5009109;28;20065;-70
2021/10/05 04:52:20;;;;;;;7.40;6.45;;;13.20;99.90;;;;;;5009804;28;20065;-70
2021/10/05 04:54:46;;;;;;;6.90;6.20;;;13.20;99.90;;;;;;5010404;28;20161;-71
2021/10/05 04:57:12;;;;;;;6.47;5.85;;;13.20;99.90;;;;;;5009753;28;20038;-70
2021/10/05 04:59:37;;;;;;;7.50;6.47;;;13.10;99.90;;;;;;5011367;28;20037;-70
2021/10/05 05:02:03;;;;;;;6.85;6.07;;;13.10;99.90;;;;;;5009125;28;20030;-71
2021/10/05 05:04:29;;;;;;;7.90;6.80;;;13.10;99.90;;;;;;5009291;28;20073;-71
2021/10/05 05:06:55;;;;;;;16.08;6.57;;;13.10;99.90;;;;;;5009098;28;20095;-71
2021/10/05 05:09:21;;;;;;;9.02;6.38;;;13.00;99.90;;;;;;5009221;28;20026;-70
2021/10/05 05:11:46;;;;;;;9.25;7.57;;;13.00;99.90;;;;;;5008465;28;20091;-70
2021/10/05 05:14:13;;;;;;;7.55;6.70;;;13.00;99.90;;;;;;5009795;28;20026;-71
2021/10/05 05:16:41;;;;;;;7.90;7.20;;;13.00;99.90;;;;;;5010910;28;20026;-70
2021/10/05 05:19:08;;;;;;;6.40;5.80;;;13.00;99.90;;;;;;5008852;28;20033;-71
2021/10/05 05:21:35;;;;;;;7.28;6.10;;;13.10;99.90;;;;;;5010072;28;20030;-71
2021/10/05 05:24:01;;;;;;;6.93;6.22;;;13.00;99.90;;;;;;5009204;28;20030;-72
2021/10/05 05:26:27;;;;;;;8.77;7.25;;;13.00;99.90;;;;;;5009701;28;20036;-73
2021/10/05 05:28:54;;;;;;;7.43;6.65;;;12.90;99.90;;;;;;5008956;28;20030;-72
2021/10/05 05:31:21;;;;;;;12.10;7.15;;;12.90;99.90;;;;;;5009735;28;20443;-72
2021/10/05 05:33:47;;;;;;;7.65;6.85;;;12.90;99.90;;;;;;5009146;28;20344;-72
2021/10/05 05:36:13;;;;;;;7.60;6.90;;;13.00;99.90;;;;;;5009687;28;20033;-71
2021/10/05 05:38:39;;;;;;;8.23;7.40;;;12.90;99.90;;;;;;5010545;28;20030;-72
2021/10/05 05:41:05;;;;;;;9.77;7.03;;;12.80;99.90;;;;;;5009263;28;20607;-71
2021/10/05 05:43:32;;;;;;;6.68;6.07;;;12.90;99.90;;;;;;4996798;28;20550;-71
2021/10/05 05:45:57;;;;;;;8.57;7.55;;;12.90;99.90;;;;;;5012560;28;20026;-72
2021/10/05 05:48:23;;;;;;;7.18;6.47;;;12.80;99.90;;;;;;5014380;28;20033;-72
2021/10/05 05:50:49;;;;;;;8.90;7.35;;;12.70;99.90;;;;;;5012053;28;20033;-72
2021/10/05 05:53:15;;;;;;;8.45;7.50;;;12.80;99.90;;;;;;5012570;28;20038;-72
2021/10/05 05:55:41;;;;;;;7.50;6.70;;;12.80;99.90;;;;;;5012517;28;20395;-71
2021/10/05 05:58:15;;;;;;;7.90;6.78;;;12.80;99.90;;;;;;5011807;28;20030;-70
2021/10/05 06:00:45;;;;;;;7.93;6.70;;;12.80;99.90;;;;;;5012638;28;20145;-71
2021/10/05 06:03:12;;;;;;;7.80;6.97;;;12.80;99.90;;;;;;5011987;28;20041;-72
2021/10/05 06:05:39;;;;;;;7.28;6.30;;;12.80;99.90;;;;;;5012146;28;20280;-71
2021/10/05 06:08:05;;;;;;;7.60;6.53;;;12.80;99.90;;;;;;5013628;28;20065;-71
2021/10/05 06:10:31;;;;;;;8.27;6.43;;;12.80;99.90;;;;;;5013971;28;20381;-71
2021/10/05 06:12:57;;;;;;;9.48;7.43;;;12.80;99.90;;;;;;5013116;28;20034;-71
2021/10/05 06:15:23;;;;;;;7.75;7.05;;;12.80;99.90;;;;;;5011897;28;20034;-71
2021/10/05 06:17:50;;;;;;;10.52;7.47;;;12.80;99.90;;;;;;5011895;28;20092;-72
2021/10/05 06:20:22;;;;;;;9.32;7.55;;;12.80;99.90;;;;;;5013182;28;20436;-71
2021/10/05 06:22:47;;;;;;;;;;;12.90;99.90;;;;;;5012444;28;20057;-72
2021/10/05 06:25:17;;;;;;;10.73;7.30;;;13.00;99.90;;;;;;5012099;28;19995;-72
2021/10/05 06:27:43;;;;;;;11.63;8.50;;;13.00;99.90;;;;;;5013947;28;20026;-72
2021/10/05 06:30:12;;;;;;;8.90;8.00;;;12.90;99.90;;;;;;5013109;28;20037;-72
2021/10/05 06:32:38;;;;;;;8.35;7.35;;;13.00;99.90;;;;;;5012130;28;20041;-71
2021/10/05 06:35:04;;;;;;;8.60;7.70;;;13.10;99.90;;;;;;5011495;28;20481;-72
2021/10/05 06:37:30;;;;;;;7.55;6.93;;;13.10;99.90;;;;;;5012909;28;20036;-72
2021/10/05 06:39:56;;;;;;;8.02;7.32;;;13.20;99.90;;;;;;5011113;28;20022;-71
2021/10/05 06:42:23;;;;;;;5.88;5.35;;;13.30;99.90;;;;;;5011812;28;20030;-72
2021/10/05 06:44:49;;;;;;;8.15;7.43;;;13.30;99.90;;;;;;5010721;28;20052;-73
2021/10/05 06:47:15;;;;;;;7.63;6.85;;;13.40;99.90;;;;;;5011891;28;20025;-71
2021/10/05 06:49:40;;;;;;;7.32;6.63;;;13.30;99.90;;;;;;5013193;28;20470;-72
2021/10/05 06:52:06;;;;;;;7.90;6.82;;;13.20;99.90;;;;;;5012154;28;20036;-72
2021/10/05 06:54:33;;;;;;;8.00;7.22;;;13.30;99.90;;;;;;5010995;28;20026;-72
2021/10/05 06:56:59;;;;;;;7.15;6.20;;;13.20;99.90;;;;;;5011246;28;20026;-71
2021/10/05 06:59:25;;;;;;;8.32;7.53;;;13.20;99.90;;;;;;5012656;28;20479;-72
2021/10/05 07:01:53;;;;;;;7.80;7.00;;;13.20;99.90;;;;;;5011052;28;20076;-72
2021/10/05 07:04:19;;;;;;;6.70;6.10;;;13.10;99.90;;;;;;5011071;28;20053;-72
2021/10/05 07:06:45;;;;;;;7.57;6.78;;;13.20;99.90;;;;;;5011305;28;20052;-72
2021/10/05 07:09:11;;;;;;;6.78;6.07;;;13.10;99.90;;;;;;5010852;28;20268;-71
2021/10/05 07:11:37;;;;;;;7.30;6.60;;;13.20;99.90;;;;;;5011619;28;20471;-72
2021/10/05 07:14:03;;;;;;;7.47;6.38;;;13.10;99.90;;;;;;5012210;28;20079;-72
2021/10/05 07:16:29;;;;;;;6.43;4.50;;;13.30;99.90;;;;;;5012620;28;20034;-70
2021/10/05 07:18:55;;;;;;;5.65;5.10;;;13.30;99.90;;;;;;5009476;28;20331;-72
2021/10/05 07:21:23;;;;;;;8.63;3.97;;;13.10;99.90;;;;;;5012308;28;20029;-66
2021/10/05 07:23:49;;;;;;;4.45;4.05;;;13.30;99.90;;;;;;5005936;28;20383;-70
2021/10/05 07:26:16;;;;;;;3.88;3.55;;;14.00;99.90;;;;;;5011287;28;20040;-72
2021/10/05 07:28:42;;;;;;;3.83;3.28;;;14.10;99.90;;;;;;5011454;28;20467;-73
2021/10/05 07:31:08;;;;;;;4.30;3.60;;;13.60;99.90;;;;;;5011949;28;20034;-72
2021/10/05 07:33:34;;;;;;;5.97;3.40;;;13.30;99.90;;;;;;5011929;28;20038;-73
2021/10/05 07:36:00;;;;;;;5.43;3.65;;;13.40;99.90;;;;;;5010202;28;20322;-72
2021/10/05 07:38:26;;;;;;;3.83;2.63;;;13.40;99.90;;;;;;5010580;28;20061;-72
2021/10/05 07:40:54;;;;;;;3.15;2.85;;;13.50;99.90;;;;;;5011248;28;20032;-79
2021/10/05 07:43:20;;;;;;;4.18;3.70;;;13.50;99.90;;;;;;5007260;28;20113;-78
2021/10/05 07:45:47;;;;;;;4.45;3.53;;;13.60;99.90;;;;;;5011263;28;20494;-78
2021/10/05 07:48:13;;;;;;;7.20;3.47;;;13.50;99.90;;;;;;5010730;28;20297;-72
2021/10/05 07:50:39;;;;;;;3.15;2.78;;;13.60;99.90;;;;;;5010831;28;20117;-79
2021/10/05 07:53:05;;;;;;;4.25;2.78;;;13.70;99.90;;;;;;4993863;28;20037;-73
2021/10/05 07:55:32;;;;;;;3.03;2.35;;;13.80;99.90;;;;;;5010132;28;20080;-73
2021/10/05 07:57:59;;;;;;;3.10;2.80;;;13.90;99.90;;;;;;5006262;28;20035;-72
2021/10/05 08:00:25;;;;;;;3.05;2.85;;;13.80;99.90;;;;;;5009119;28;20064;-73
2021/10/05 08:02:51;;;;;;;3.75;3.33;;;13.70;99.90;;;;;;5001627;28;20053;-72
2021/10/05 08:05:17;;;;;;;2.78;1.98;;;13.60;99.90;;;;;;5003428;28;20030;-71
2021/10/05 08:07:54;;;;;;;4.28;2.08;;;13.60;99.90;;;;;;4999853;28;20018;-73
2021/10/05 08:10:20;;;;;;;3.05;1.90;;;13.60;99.90;;;;;;4996524;28;20022;-72
2021/10/05 08:12:46;;;;;;;2.20;1.52;;;13.70;99.90;;;;;;4997397;28;20106;-71
2021/10/05 08:15:11;;;;;;;4.65;1.35;;;13.70;99.90;;;;;;4995160;28;20030;-69
2021/10/05 08:17:39;;;;;;;3.92;1.20;;;14.50;99.90;;;;;;4998756;28;20018;-70
2021/10/05 08:20:06;;;;;;;2.35;1.38;;;14.70;99.90;;;;;;4998485;28;20026;-69
2021/10/05 08:22:32;;;;;;;4.53;1.88;;;14.80;99.90;;;;;;5000526;28;20167;-70
2021/10/05 08:24:57;;;;;;;1.83;1.65;;;15.20;99.90;;;;;;5000471;28;20025;-70
2021/10/05 08:27:24;;;;;;;2.60;1.88;;;15.30;99.90;;;;;;5000906;28;20426;-72
2021/10/05 08:29:52;;;;;;;2.50;1.63;;;15.30;99.90;;;;;;4998622;28;20041;-71
2021/10/05 08:32:17;;;;;;;2.70;1.65;;;15.50;99.90;;;;;;5001596;28;20123;-71
2021/10/05 08:34:44;;;;;;;3.45;1.42;;;15.30;99.90;;;;;;4996694;28;20110;-71
2021/10/05 08:37:09;;;;;;;2.55;1.77;;;15.10;99.90;;;;;;5000749;28;20547;-71
2021/10/05 08:39:35;;;;;;;2.50;1.95;;;14.90;99.90;;;;;;4998353;28;20504;-71
2021/10/05 08:42:02;;;;;;;5.50;2.05;;;15.00;99.90;;;;;;5000556;28;20499;-71
2021/10/05 08:44:27;;;;;;;3.35;2.10;;;15.00;99.90;;;;;;4999995;28;20511;-71
2021/10/05 08:46:54;;;;;;;3.40;1.90;;;15.20;99.90;;;;;;5001175;28;20049;-71
2021/10/05 08:49:21;;;;;;;4.10;2.17;;;15.20;99.90;;;;;;4999989;28;20026;-71
2021/10/05 08:51:48;;;;;;;6.38;2.40;;;15.30;99.90;;;;;;5007729;28;20475;-69
2021/10/05 08:54:14;;;;;;;2.28;2.03;;;15.60;99.90;;;;;;5010373;28;20484;-71
2021/10/05 08:56:42;;;;;;;2.90;2.00;;;15.60;99.90;;;;;;5009582;28;20060;-71
2021/10/05 08:59:09;;;;;;;6.28;3.10;;;15.30;99.90;;;;;;5009120;28;20076;-71
2021/10/05 09:01:35;;;;;;;2.35;1.75;;;15.40;99.90;;;;;;5009703;28;20037;-71
2021/10/05 09:04:03;;;;;;;3.03;1.33;;;15.40;99.90;;;;;;5008598;28;20196;-70
2021/10/05 09:06:29;;;;;;;3.13;2.45;;;15.50;99.90;;;;;;5011182;28;20053;-71
2021/10/05 09:08:55;;;;;;;5.50;1.70;;;15.60;99.90;;;;;;5009840;28;20389;-71
2021/10/05 09:11:26;;;;;;;4.45;2.40;;;15.50;99.90;;;;;;5009008;28;20379;-70
2021/10/05 09:13:54;;;;;;;3.03;2.63;;;15.60;99.90;;;;;;5009765;28;20066;-71
2021/10/05 09:16:25;;;;;;;2.95;2.42;;;15.50;99.90;;;;;;5011193;28;20104;-71
2021/10/05 09:18:59;;;;;;;3.78;2.38;;;15.40;99.90;;;;;;5011801;28;20463;-70
2021/10/05 09:21:29;;;;;;;4.32;2.85;;;15.50;99.90;;;;;;5012163;28;20467;-69
2021/10/05 09:24:08;;;;;;;2.72;2.10;;;15.40;99.90;;;;;;5014639;28;20034;-72
2021/10/05 09:26:52;;;;;;;2.45;2.22;;;15.00;99.90;;;;;;5013214;28;20053;-71
2021/10/05 09:29:35;;;;;;;3.83;2.72;;;14.80;99.90;;;;;;5012441;28;20117;-72
2021/10/05 09:32:08;;;;;;;4.32;2.55;;;14.60;99.90;;;;;;5012620;28;20416;-70
2021/10/05 09:34:36;;;;;;;3.75;3.03;;;14.60;99.90;;;;;;5014580;28;20037;-73
2021/10/05 09:37:09;;;;;;;3.72;2.72;;;14.50;99.90;;;;;;5014076;28;20491;-72
2021/10/05 09:39:40;;;;;;;4.55;3.30;;;14.40;99.90;;;;;;5013184;28;20034;-73
2021/10/05 09:42:07;;;;;;;4.20;3.25;;;14.60;99.90;;;;;;5012659;28;20478;-73
2021/10/05 09:44:33;;;;;;;3.95;2.80;;;14.70;99.90;;;;;;5013069;28;20124;-72
2021/10/05 09:46:58;;;;;;;8.82;2.30;;;14.80;99.90;;;;;;5013149;28;20068;-51
2021/10/05 09:49:24;;;;;;;5.55;2.45;;;14.90;99.90;;;;;;5013835;28;20104;-49
2021/10/05 09:52:01;;;;;;;6.82;2.78;;;15.40;99.90;;;;;;5013976;28;20053;-49
2021/10/05 09:54:28;;;;;;;7.00;2.00;;;15.70;99.90;;;;;;5008884;28;20066;-54
2021/10/05 09:56:54;;;;;;;2.63;1.63;;;16.10;99.90;;;;;;5007955;28;20026;-47
2021/10/05 09:59:20;;;;;;;5.43;2.70;;;16.00;99.90;;;;;;5004979;28;20042;-70
2021/10/05 10:01:46;;;;;;;4.78;2.75;;;16.00;99.90;;;;;;5012374;28;20482;-70
2021/10/05 10:04:14;;;;;;;5.03;2.25;;;15.50;99.90;;;;;;5013252;28;20042;-71
2021/10/05 10:06:40;;;;;;;2.42;1.80;;;15.30;99.90;;;;;;5014290;28;20045;-71
2021/10/05 10:09:07;;;;;;;2.60;1.65;;;15.40;99.90;;;;;;5013554;28;20137;-72
2021/10/05 10:11:34;;;;;;;2.55;1.58;;;15.40;99.90;;;;;;5006761;28;20452;-71
2021/10/05 10:14:00;;;;;;;2.40;1.85;;;15.20;99.90;;;;;;5008638;28;20114;-71
2021/10/05 10:16:26;;;;;;;3.90;2.30;;;14.90;99.90;;;;;;5007721;28;20049;-71
2021/10/05 10:19:02;;;;;;;2.90;2.35;;;15.00;99.90;;;;;;5008767;28;20418;-71
2021/10/05 10:21:29;;;;;;;2.63;1.88;;;14.90;99.90;;;;;;4992661;28;20027;-70
2021/10/05 10:24:12;;;;;;;2.42;1.85;;;14.80;99.90;;;;;;5008758;28;20120;-71
2021/10/05 10:26:43;;;;;;;2.97;1.92;;;14.90;99.90;;;;;;5008832;28;20058;-71
2021/10/05 10:29:11;;;;;;;2.35;2.08;;;15.00;99.90;;;;;;4993486;28;20057;-71
2021/10/05 10:31:39;;;;;;;11.50;2.65;;;15.20;99.90;;;;;;5009202;28;20062;-71
2021/10/05 10:34:06;;;;;;;4.35;3.17;;;15.50;99.90;;;;;;5008387;28;20045;-71
2021/10/05 10:36:41;;;;;;;4.80;3.60;;;15.60;99.90;;;;;;5008427;28;20023;-72
2021/10/05 10:39:07;;;;;;;3.42;3.13;;;15.60;99.90;;;;;;4992867;28;20109;-70
2021/10/05 10:41:33;;;;;;;3.67;3.35;;;15.30;99.90;;;;;;5008383;28;20061;-70
2021/10/05 10:44:02;;;;;;;4.68;4.13;;;15.30;99.90;;;;;;4993730;28;20236;-70
2021/10/05 10:46:31;;;;;;;4.72;3.85;;;15.20;99.90;;;;;;5008133;28;20037;-72
2021/10/05 10:48:59;;;;;;;5.18;3.95;;;15.30;99.90;;;;;;5008881;28;20029;-72
2021/10/05 10:51:27;;;;;;;6.60;4.88;;;15.30;99.90;;;;;;5007707;28;20057;-71
2021/10/05 10:53:54;;;;;;;9.18;5.57;;;15.30;99.90;;;;;;4991878;28;20030;-71
2021/10/05 10:56:36;;;;;;;6.93;6.30;;;15.30;99.90;;;;;;5007478;28;20496;-71
2021/10/05 10:59:10;;;;;;;10.15;6.97;;;15.30;99.90;;;;;;5008197;28;20342;-71
2021/10/05 11:01:43;;;;;;;6.25;4.47;;;15.30;99.90;;;;;;5008650;28;20031;-71
2021/10/05 11:04:10;;;;;;;8.63;6.30;;;15.70;99.90;;;;;;5007323;28;20149;-70
2021/10/05 11:06:37;;;;;;;8.48;7.57;;;15.90;99.90;;;;;;4993320;28;20019;-71
2021/10/05 11:09:05;;;;;;;9.18;8.00;;;15.70;99.90;;;;;;5006963;28;20030;-71
2021/10/05 11:11:32;;;;;;;8.55;7.70;;;15.50;99.90;;;;;;4993048;28;20054;-73
2021/10/05 11:14:01;;;;;;;9.07;8.20;;;15.70;99.90;;;;;;5007637;28;20038;-70
2021/10/05 11:16:29;;;;;;;8.02;6.95;;;15.80;99.90;;;;;;5007342;28;20038;-71
2021/10/05 11:19:13;;;;;;;12.20;7.63;;;15.80;99.90;;;;;;4991577;28;20061;-71
2021/10/05 11:21:41;;;;;;;8.50;7.70;;;15.70;99.90;;;;;;5008356;28;20033;-71
2021/10/05 11:24:09;;;;;;;10.85;8.45;;;15.90;99.90;;;;;;5002116;28;20069;-72
2021/10/05 11:26:40;;;;;;;9.60;8.70;;;15.70;99.90;;;;;;5011005;28;20033;-71
2021/10/05 11:29:06;;;;;;;;;;;15.70;99.90;;;;;;5011286;28;20121;-72
2021/10/05 11:31:44;;;;;;;9.50;8.52;;;15.80;99.90;;;;;;5011014;28;19980;-71
2021/10/05 11:34:09;;;;;;;12.38;8.68;;;15.70;99.90;;;;;;5010801;28;20040;-71
2021/10/05 11:36:35;;;;;;;9.32;8.43;;;15.70;99.90;;;;;;5011121;28;20125;-71
2021/10/05 11:39:02;;;;;;;13.88;9.57;;;15.60;99.90;;;;;;4994228;28;20038;-71
2021/10/05 11:41:37;;;;;;;10.32;8.43;;;15.50;99.90;;;;;;5008174;28;20332;-71
2021/10/05 11:44:15;;;;;;;10.77;8.75;;;15.60;99.90;;;;;;4998318;28;20034;-71
2021/10/05 11:46:59;;;;;;;15.45;10.10;;;15.50;99.90;;;;;;5004877;28;20030;-71
2021/10/05 11:49:36;;;;;;;11.80;9.63;;;15.70;99.90;;;;;;5008554;28;20077;-71
2021/10/05 11:52:04;;;;;;;10.10;9.10;;;15.90;99.90;;;;;;5009628;28;20034;-72
2021/10/05 11:54:33;;;;;;;10.77;9.43;;;16.00;99.90;;;;;;4998546;28;20058;-71
2021/10/05 11:57:01;;;;;;;10.25;8.35;;;16.00;99.90;;;;;;5000845;28;20029;-71
2021/10/05 11:59:31;;;;;;;10.10;8.57;;;16.10;99.90;;;;;;5001305;28;20029;-72
2021/10/05 12:02:04;;;;;;;8.50;7.55;;;16.20;99.90;;;;;;4998898;28;20030;-72
2021/10/05 12:04:30;;;;;;;8.93;6.70;;;16.90;99.90;;;;;;5000596;28;20237;-71
2021/10/05 12:07:01;;;;;;;7.05;5.20;;;17.50;99.90;;;;;;5001745;28;20018;-70
2021/10/05 12:09:28;;;;;;;5.03;4.38;;;18.40;99.90;;;;;;4998824;28;20035;-73
2021/10/05 12:12:15;;;;;;;9.73;5.43;;;19.00;99.90;;;;;;5000063;28;20132;-73
2021/10/05 12:14:53;;;;;;;5.53;4.38;;;19.40;99.90;;;;;;5000586;28;20038;-72
2021/10/05 12:17:19;;;;;;;5.65;3.88;;;19.40;99.90;;;;;;5009930;28;20029;-72
2021/10/05 12:19:55;;;;;;;3.35;2.95;;;19.30;99.90;;;;;;5008352;28;20591;-73
2021/10/05 12:22:25;;;;;;;5.32;3.30;;;19.10;99.90;;;;;;5003241;28;20472;-73
2021/10/05 12:24:53;;;;;;;3.60;2.95;;;18.90;99.90;;;;;;4998271;28;20117;-72
2021/10/05 12:27:26;;;;;;;3.72;2.40;;;18.80;99.90;;;;;;4998345;28;20026;-72
2021/10/05 12:29:58;;;;;;;3.40;2.50;;;18.70;99.90;;;;;;4999485;28;20157;-72
2021/10/05 12:32:38;;;;;;;;;;;18.60;99.90;;;;;;4998087;28;20034;-72
2021/10/05 12:35:27;;;;;;;2.30;1.73;;;18.70;99.90;;;;;;5015685;28;20090;-71
2021/10/05 12:38:03;;;;;;;2.30;2.00;;;18.40;99.90;;;;;;4999842;28;20026;-71
2021/10/05 12:40:57;;;;;;;3.80;1.67;;;18.30;99.90;;;;;;4997247;28;20041;-71
2021/10/05 12:43:34;;;;;;;3.47;1.90;;;17.70;99.90;;;;;;4999588;28;20495;-70
2021/10/05 12:46:00;;;;;;;4.32;2.00;;;17.80;99.90;;;;;;5000693;28;20022;-72
2021/10/05 12:48:37;;;;;;;3.60;1.98;;;17.60;99.90;;;;;;4998282;28;20061;-70
2021/10/05 12:51:11;;;;;;;6.53;2.08;;;17.70;99.90;;;;;;5000634;28;20087;-71
2021/10/05 12:53:38;;;;;;;2.83;1.42;;;17.60;99.90;;;;;;5009474;28;20037;-71